Time;durP1;ratioP1;P1;durP2;ratioP2;P2;SDS_P1;SDS_P2;PMS_P1;PMS_P2;Temp;Humidity;BMP_temperature;BMP_pressure;BME280_temperature;BME280_humidity;BME280_pressure;Samples;Min_cycle;Max_cycle;Signal;HPM_P1;HPM_P2
2021/10/20 00:01:04;;;;;;;31.73;19.85;;;;;;;11.72;70.01;101393.03;5053217;28;20454;-21
2021/10/20 00:03:30;;;;;;;98.25;57.25;;;;;;;11.54;70.16;101384.66;5071863;28;20051;-19
2021/10/20 00:05:57;;;;;;;50.75;31.52;;;;;;;11.80;69.05;101386.72;5071602;28;20428;-19
2021/10/20 00:08:23;;;;;;;46.88;29.60;;;;;;;11.88;68.87;101373.22;5071175;28;20111;-20
2021/10/20 00:10:48;;;;;;;29.20;20.10;;;;;;;11.77;69.31;101387.09;5053065;28;20081;-20
2021/10/20 00:13:14;;;;;;;27.42;16.83;;;;;;;11.50;70.39;101378.06;5036696;28;20036;-19
2021/10/20 00:15:39;;;;;;;19.77;13.38;;;;;;;11.23;70.76;101381.31;5052979;28;20046;-19
2021/10/20 00:18:05;;;;;;;17.92;11.73;;;;;;;10.96;71.56;101352.72;5036724;28;20477;-19
2021/10/20 00:20:31;;;;;;;17.73;12.02;;;;;;;10.58;74.28;101360.91;5070995;28;20480;-19
2021/10/20 00:22:56;;;;;;;92.00;49.10;;;;;;;10.74;73.10;101373.22;5070427;28;20032;-19
2021/10/20 00:25:22;;;;;;;34.15;20.85;;;;;;;10.82;71.70;101355.22;5070887;28;20042;-19
2021/10/20 00:27:47;;;;;;;39.25;23.45;;;;;;;10.96;72.21;101374.91;5070913;28;20032;-19
2021/10/20 00:30:15;;;;;;;21.40;14.15;;;;;;;10.85;72.07;101370.88;5070464;28;20031;-20
2021/10/20 00:32:40;;;;;;;29.83;20.77;;;;;;;10.93;71.88;101372.63;5070069;28;20024;-20
2021/10/20 00:35:06;;;;;;;17.15;12.50;;;;;;;10.76;71.51;101350.66;5070402;28;20082;-20
2021/10/20 00:37:32;;;;;;;17.48;12.07;;;;;;;10.68;72.48;101358.78;5070524;28;20027;-20
2021/10/20 00:39:57;;;;;;;17.00;11.70;;;;;;;10.69;71.69;101365.78;5070536;28;20094;-19
2021/10/20 00:42:23;;;;;;;16.67;12.13;;;;;;;10.56;72.60;101377.13;5070926;28;20028;-20
2021/10/20 00:44:56;;;;;;;18.52;12.07;;;;;;;10.13;74.83;101384.09;5052605;28;20430;-20
2021/10/20 00:47:22;;;;;;;19.85;13.00;;;;;;;10.23;74.79;101381.97;5070606;28;20074;-20
2021/10/20 00:49:48;;;;;;;19.60;13.52;;;;;;;10.44;74.17;101374.09;5070615;28;20060;-20
2021/10/20 00:52:13;;;;;;;19.08;13.27;;;;;;;10.48;73.52;101381.72;5052380;28;20033;-19
2021/10/20 00:54:39;;;;;;;19.10;13.88;;;;;;;10.36;73.94;101366.19;5070406;28;20039;-19
2021/10/20 00:57:05;;;;;;;19.45;13.45;;;;;;;10.21;74.63;101384.00;5052248;28;20474;-20
2021/10/20 00:59:31;;;;;;;19.10;12.20;;;;;;;9.74;76.61;101382.47;5070501;28;20066;-19
2021/10/20 01:01:57;;;;;;;17.27;11.82;;;;;;;9.83;76.12;101376.91;5052651;28;20117;-20
2021/10/20 01:04:22;;;;;;;17.92;12.50;;;;;;;10.25;73.92;101374.63;5052187;28;20079;-20
2021/10/20 01:06:48;;;;;;;17.13;11.95;;;;;;;9.73;76.01;101388.84;5051906;28;20396;-20
2021/10/20 01:09:13;;;;;;;18.20;12.10;;;;;;;9.87;76.09;101398.69;5070204;28;20035;-19
2021/10/20 01:11:39;;;;;;;19.08;12.10;;;;;;;10.01;75.06;101373.91;5052175;28;20039;-19
2021/10/20 01:14:04;;;;;;;19.58;11.55;;;;;;;10.49;73.24;101391.38;5070029;28;20480;-19
2021/10/20 01:16:30;;;;;;;17.55;12.63;;;;;;;9.83;75.69;101381.41;5051940;28;20036;-19
2021/10/20 01:18:55;;;;;;;17.15;11.85;;;;;;;10.13;73.70;101368.91;5069460;28;20028;-20
2021/10/20 01:21:21;;;;;;;16.85;11.73;;;;;;;9.90;74.48;101350.34;5052079;28;20090;-19
2021/10/20 01:23:49;;;;;;;19.42;12.85;;;;;;;10.33;73.56;101387.88;5035271;28;20039;-19
2021/10/20 01:26:15;;;;;;;18.00;11.73;;;;;;;10.34;73.42;101368.22;5069806;28;20028;-19
2021/10/20 01:28:41;;;;;;;17.85;12.00;;;;;;;10.31;73.22;101373.09;5069505;28;20139;-19
2021/10/20 01:31:06;;;;;;;17.67;12.48;;;;;;;10.56;72.43;101381.59;5069420;28;20052;-19
2021/10/20 01:33:32;;;;;;;17.38;12.55;;;;;;;10.44;72.35;101390.09;5051474;28;20153;-19
2021/10/20 01:35:57;;;;;;;17.58;12.80;;;;;;;10.57;71.71;101383.28;5069410;28;20388;-20
2021/10/20 01:38:23;;;;;;;18.77;13.48;;;;;;;10.71;71.18;101378.94;5051785;28;20032;-21
2021/10/20 01:40:48;;;;;;;19.25;13.35;;;;;;;10.73;70.24;101375.06;5034989;28;20048;-19
2021/10/20 01:43:14;;;;;;;17.50;12.60;;;;;;;10.60;70.44;101364.22;5051390;28;20811;-20
2021/10/20 01:45:39;;;;;;;19.65;12.95;;;;;;;10.74;70.19;101383.88;5051660;28;20089;-20
2021/10/20 01:48:05;;;;;;;20.42;13.90;;;;;;;10.57;70.67;101369.94;5051455;28;20052;-20
2021/10/20 01:50:30;;;;;;;17.42;13.13;;;;;;;10.56;71.33;101389.59;5051220;28;20032;-20
2021/10/20 01:52:56;;;;;;;19.33;13.38;;;;;;;10.32;72.57;101380.91;5051312;28;20024;-20
2021/10/20 01:55:21;;;;;;;20.88;13.73;;;;;;;10.05;72.66;101375.19;5069020;28;20029;-20
2021/10/20 01:57:47;;;;;;;20.90;14.13;;;;;;;9.70;73.73;101365.22;5069079;28;20031;-20
2021/10/20 02:00:13;;;;;;;20.10;13.45;;;;;;;9.58;73.94;101363.00;5069094;28;20463;-19
2021/10/20 02:02:38;;;;;;;18.27;13.25;;;;;;;9.21;76.68;101393.91;5068871;28;20541;-20
2021/10/20 02:05:14;;;;;;;18.85;12.95;;;;;;;9.42;74.91;101379.13;5050828;28;20036;-20
2021/10/20 02:07:40;;;;;;;18.83;13.27;;;;;;;9.62;74.30;101376.75;5069003;28;20028;-20
2021/10/20 02:10:10;;;;;;;21.65;14.27;;;;;;;9.14;74.62;101379.63;5068983;28;20078;-20
2021/10/20 02:12:35;;;;;;;23.17;13.50;;;;;;;9.08;75.62;101372.38;5068840;28;20024;-20
2021/10/20 02:15:01;;;;;;;21.52;13.50;;;;;;;8.99;75.26;101389.38;5068660;28;20032;-19
2021/10/20 02:17:26;;;;;;;19.42;12.48;;;;;;;8.88;75.62;101382.63;5068682;28;20025;-20
2021/10/20 02:19:52;;;;;;;19.02;13.68;;;;;;;9.51;72.61;101387.84;5068805;28;20546;-19
2021/10/20 02:22:17;;;;;;;19.55;13.45;;;;;;;9.68;72.60;101399.19;5034447;28;20028;-19
2021/10/20 02:24:43;;;;;;;22.13;14.32;;;;;;;9.68;72.49;101384.03;5051401;28;20561;-19
2021/10/20 02:27:08;;;;;;;18.98;12.90;;;;;;;9.51;73.40;101394.00;5068521;28;20024;-20
2021/10/20 02:29:34;;;;;;;22.52;13.43;;;;;;;9.64;72.64;101410.22;5034420;28;20090;-20
2021/10/20 02:32:00;;;;;;;19.08;13.40;;;;;;;9.45;73.80;101419.50;5050641;28;20438;-20
2021/10/20 02:34:25;;;;;;;21.92;15.15;;;;;;;9.09;75.08;101408.59;5050674;28;20063;-20
2021/10/20 02:36:51;;;;;;;20.75;13.57;;;;;;;9.55;73.54;101419.28;5068460;28;20056;-20
2021/10/20 02:39:16;;;;;;;21.35;13.68;;;;;;;9.48;74.23;101413.03;5068743;28;20024;-22
2021/10/20 02:41:42;;;;;;;26.08;13.70;;;;;;;9.79;72.98;101406.75;5068817;28;20106;-20
2021/10/20 02:44:07;;;;;;;25.52;13.70;;;;;;;9.65;72.89;101397.72;5068579;28;20472;-19
2021/10/20 02:46:33;;;;;;;16.65;11.68;;;;;;;9.36;73.79;101411.78;5068436;28;20028;-20
2021/10/20 02:48:58;;;;;;;18.25;12.48;;;;;;;9.32;73.75;101405.16;5068450;28;20101;-20
2021/10/20 02:51:24;;;;;;;19.17;12.55;;;;;;;9.95;72.06;101411.09;5068455;28;20037;-19
2021/10/20 02:53:50;;;;;;;19.08;12.95;;;;;;;10.06;71.02;101423.97;5068253;28;20028;-20
2021/10/20 02:56:17;;;;;;;17.42;12.07;;;;;;;9.63;72.04;101397.06;5071629;28;20029;-19
2021/10/20 02:58:43;;;;;;;18.65;12.82;;;;;;;9.11;74.10;101408.44;5072464;28;20032;-21
2021/10/20 03:01:08;;;;;;;15.68;11.32;;;;;;;9.11;73.77;101400.44;5038036;28;20040;-20
2021/10/20 03:03:34;;;;;;;17.30;12.27;;;;;;;8.56;75.85;101399.56;5054421;28;20484;-20
2021/10/20 03:06:00;;;;;;;16.83;11.45;;;;;;;8.40;76.55;101395.16;5072240;28;20028;-20
2021/10/20 03:08:25;;;;;;;16.17;11.77;;;;;;;8.82;75.19;101394.78;5072368;28;20044;-20
2021/10/20 03:10:51;;;;;;;16.90;11.90;;;;;;;8.55;75.52;101392.63;5072107;28;20036;-20
2021/10/20 03:13:16;;;;;;;17.02;12.10;;;;;;;8.92;74.82;101405.22;5054408;28;20033;-19
2021/10/20 03:15:42;;;;;;;19.02;12.52;;;;;;;9.28;72.81;101382.56;5072024;28;20025;-20
2021/10/20 03:18:07;;;;;;;19.60;11.60;;;;;;;9.44;72.58;101395.75;5037699;28;20036;-21
2021/10/20 03:20:32;;;;;;;18.20;12.52;;;;;;;9.60;71.14;101381.44;5072256;28;20028;-20
2021/10/20 03:22:58;;;;;;;18.63;11.65;;;;;;;9.54;70.19;101376.84;5054065;28;20040;-20
2021/10/20 03:25:23;;;;;;;18.70;13.07;;;;;;;9.81;70.08;101391.41;5071915;28;20463;-20
2021/10/20 03:27:50;;;;;;;20.45;12.68;;;;;;;9.71;70.24;101390.84;5071904;28;20028;-19
2021/10/20 03:30:17;;;;;;;21.25;13.93;;;;;;;8.70;73.03;101369.59;5071825;28;20070;-20
2021/10/20 03:32:42;;;;;;;24.00;15.38;;;;;;;9.17;72.50;101375.78;5054334;28;20021;-20
2021/10/20 03:35:08;;;;;;;22.80;16.25;;;;;;;9.24;72.18;101376.75;5070444;28;20038;-20
2021/10/20 03:37:34;;;;;;;28.30;20.98;;;;;;;9.62;71.28;101390.06;5071664;28;20064;-19
2021/10/20 03:40:00;;;;;;;27.00;18.50;;;;;;;9.44;72.03;101388.56;5071453;28;20028;-19
2021/10/20 03:42:25;;;;;;;25.25;17.08;;;;;;;9.39;72.10;101406.09;5071884;28;20079;-19
2021/10/20 03:44:51;;;;;;;25.60;17.40;;;;;;;9.41;72.03;101398.75;5071303;28;20036;-19
2021/10/20 03:47:19;;;;;;;26.38;16.15;;;;;;;9.48;72.07;101405.03;5071409;28;20086;-20
2021/10/20 03:49:45;;;;;;;22.17;15.75;;;;;;;9.23;71.67;101386.56;5054167;28;20115;-19
2021/10/20 03:52:11;;;;;;;25.30;16.92;;;;;;;9.76;70.21;101391.13;5071480;28;20055;-20
2021/10/20 03:54:36;;;;;;;21.95;14.85;;;;;;;9.70;70.18;101400.66;5071345;28;20040;-19
2021/10/20 03:57:02;;;;;;;40.42;18.35;;;;;;;9.49;70.06;101390.69;5071145;28;20572;-19
2021/10/20 03:59:27;;;;;;;24.05;16.10;;;;;;;9.52;70.62;101409.00;5071385;28;20025;-19
2021/10/20 04:01:53;;;;;;;31.90;17.58;;;;;;;9.25;71.34;101407.66;5071215;28;20036;-21
2021/10/20 04:04:19;;;;;;;29.08;17.88;;;;;;;9.00;71.83;101377.75;5071568;28;20036;-19
2021/10/20 04:06:45;;;;;;;27.10;18.60;;;;;;;9.16;71.77;101401.59;5051895;28;20032;-22
2021/10/20 04:09:10;;;;;;;27.98;17.90;;;;;;;9.40;71.08;101400.59;5070959;28;20037;-19
2021/10/20 04:11:36;;;;;;;29.80;17.42;;;;;;;9.45;70.87;101397.38;5071286;28;20032;-20
2021/10/20 04:14:01;;;;;;;27.33;17.70;;;;;;;9.04;72.21;101390.50;5071086;28;20024;-20
2021/10/20 04:16:27;;;;;;;26.63;16.90;;;;;;;9.23;71.92;101404.34;5052940;28;20032;-20
2021/10/20 04:18:52;;;;;;;27.77;15.63;;;;;;;8.90;72.48;101385.13;5070765;28;20503;-20
2021/10/20 04:21:18;;;;;;;26.92;17.02;;;;;;;8.68;73.61;101394.72;5070973;28;20036;-20
2021/10/20 04:23:43;;;;;;;27.60;17.27;;;;;;;8.32;75.39;101405.81;5070880;28;20028;-19
2021/10/20 04:26:09;;;;;;;29.95;17.88;;;;;;;8.75;74.05;101415.13;5070808;28;20059;-19
2021/10/20 04:28:34;;;;;;;30.42;18.95;;;;;;;9.20;71.73;101405.56;5071295;28;20029;-20
2021/10/20 04:30:59;;;;;;;28.88;18.05;;;;;;;9.31;71.35;101419.44;5070519;28;20501;-19
2021/10/20 04:33:25;;;;;;;29.35;18.30;;;;;;;8.95;72.21;101404.88;5070697;28;20036;-20
2021/10/20 04:35:50;;;;;;;28.38;16.98;;;;;;;8.57;73.33;101422.53;5070687;28;20033;-20
2021/10/20 04:38:16;;;;;;;34.50;16.90;;;;;;;8.35;75.00;101418.72;5070792;28;20036;-20
2021/10/20 04:40:42;;;;;;;28.35;16.63;;;;;;;8.05;75.71;101407.88;5070976;28;20825;-20
2021/10/20 04:43:07;;;;;;;26.42;16.85;;;;;;;7.93;77.19;101410.03;5070294;28;20055;-19
2021/10/20 04:45:33;;;;;;;25.58;16.50;;;;;;;7.88;76.98;101411.53;5070449;28;20035;-19
2021/10/20 04:47:58;;;;;;;26.83;17.02;;;;;;;7.69;77.78;101386.16;5070419;28;20050;-20
2021/10/20 04:50:24;;;;;;;30.60;18.38;;;;;;;7.82;78.64;101405.06;5070270;28;20024;-19
2021/10/20 04:52:49;;;;;;;35.42;17.67;;;;;;;8.20;76.12;101389.38;5069986;28;20047;-19
2021/10/20 04:55:15;;;;;;;27.92;17.27;;;;;;;7.89;77.86;101405.25;5070279;28;20036;-19
2021/10/20 04:57:40;;;;;;;27.40;16.52;;;;;;;7.55;79.83;101401.75;5052582;28;20476;-19
2021/10/20 05:00:07;;;;;;;29.48;17.30;;;;;;;7.43;80.46;101408.38;5035661;28;20032;-19
2021/10/20 05:02:35;;;;;;;27.27;18.38;;;;;;;7.55;79.77;101395.63;5052454;28;20021;-19
2021/10/20 05:05:04;;;;;;;;;;;;;;;8.41;76.00;101408.28;5053001;28;20052;-19
2021/10/20 05:07:30;;;;;;;29.23;19.83;;;;;;;8.47;75.05;101403.28;5070100;28;20011;-19
2021/10/20 05:09:55;;;;;;;32.88;19.52;;;;;;;8.47;74.47;101398.78;5070137;28;20032;-19
2021/10/20 05:12:20;;;;;;;31.10;18.48;;;;;;;7.72;77.61;101396.44;5070139;28;20036;-20
2021/10/20 05:14:46;;;;;;;34.08;20.63;;;;;;;7.97;76.96;101394.59;5051659;28;20412;-20
2021/10/20 05:17:11;;;;;;;36.88;21.00;;;;;;;8.41;75.30;101408.28;5051946;28;20036;-20
2021/10/20 05:19:37;;;;;;;35.97;21.88;;;;;;;8.05;76.86;101390.09;5069499;28;20397;-20
2021/10/20 05:22:03;;;;;;;29.95;19.02;;;;;;;7.49;79.57;101397.09;5069931;28;20036;-20
2021/10/20 05:24:28;;;;;;;33.88;22.08;;;;;;;8.37;76.28;101417.56;5051936;28;20556;-20
2021/10/20 05:26:54;;;;;;;39.47;24.92;;;;;;;8.57;74.65;101417.19;5051784;28;20107;-20
2021/10/20 05:29:21;;;;;;;31.60;24.92;;;;;;;8.22;75.47;101416.63;5069519;28;20025;-20
2021/10/20 05:31:47;;;;;;;26.83;18.00;;;;;;;8.23;75.57;101407.63;5069632;28;20052;-20
2021/10/20 05:34:12;;;;;;;28.20;15.45;;;;;;;8.30;74.81;101419.25;5051757;28;20056;-20
2021/10/20 05:36:38;;;;;;;33.13;16.33;;;;;;;8.32;75.33;101425.22;5069277;28;20412;-20
2021/10/20 05:39:04;;;;;;;35.05;14.93;;;;;;;8.21;75.61;101418.47;5069252;28;20033;-19
2021/10/20 05:41:30;;;;;;;41.85;16.77;;;;;;;8.50;75.36;101421.53;5069388;28;20060;-19
2021/10/20 05:43:55;;;;;;;39.08;17.77;;;;;;;8.60;75.12;101432.78;5069094;28;20040;-19
2021/10/20 05:46:21;;;;;;;31.63;15.98;;;;;;;8.12;77.27;101430.09;5069414;28;20515;-20
2021/10/20 05:48:46;;;;;;;34.90;15.57;;;;;;;8.51;76.01;101428.53;5069179;28;20029;-22
2021/10/20 05:51:11;;;;;;;53.28;21.20;;;;;;;8.41;76.48;101434.84;5068979;28;20041;-23
2021/10/20 05:53:37;;;;;;;52.10;30.40;;;;;;;8.94;75.13;101434.31;5068890;28;20039;-22
2021/10/20 05:56:05;;;;;;;37.63;20.27;;;;;;;9.04;74.86;101441.06;5068952;28;20036;-21
2021/10/20 05:58:31;;;;;;;24.67;14.32;;;;;;;8.62;75.64;101452.91;5069149;28;20055;-21
2021/10/20 06:00:57;;;;;;;22.65;13.65;;;;;;;8.25;78.65;101453.47;5051045;28;20056;-22
2021/10/20 06:03:23;;;;;;;24.00;15.05;;;;;;;8.25;79.22;101445.50;5051511;28;20036;-21
2021/10/20 06:05:48;;;;;;;21.77;15.32;;;;;;;8.18;80.70;101450.66;5069032;28;20424;-21
2021/10/20 06:08:14;;;;;;;23.75;15.45;;;;;;;8.27;80.95;101453.31;5069041;28;20035;-24
2021/10/20 06:10:39;;;;;;;20.35;14.57;;;;;;;8.76;79.66;101454.00;5069297;28;20037;-21
2021/10/20 06:13:05;;;;;;;23.80;15.68;;;;;;;9.25;78.24;101453.78;5068907;28;20946;-22
2021/10/20 06:15:30;;;;;;;21.38;14.45;;;;;;;9.71;76.55;101463.59;5069200;28;20484;-22
2021/10/20 06:17:56;;;;;;;22.02;16.50;;;;;;;9.97;75.86;101454.38;5068844;28;20028;-22
2021/10/20 06:20:21;;;;;;;24.42;16.25;;;;;;;9.77;75.95;101446.91;5067963;28;20028;-22
2021/10/20 06:22:47;;;;;;;21.63;14.50;;;;;;;9.53;78.71;101450.56;5067979;28;20500;-21
2021/10/20 06:25:12;;;;;;;21.10;14.20;;;;;;;9.44;79.10;101439.16;5068897;28;20039;-22
2021/10/20 06:27:39;;;;;;;22.17;16.10;;;;;;;10.04;77.09;101440.16;5068663;28;20024;-21
2021/10/20 06:30:05;;;;;;;20.80;15.90;;;;;;;10.20;76.06;101457.81;5068025;28;20078;-22
2021/10/20 06:32:30;;;;;;;21.85;15.52;;;;;;;10.36;76.71;101456.88;5068593;28;20492;-22
2021/10/20 06:34:56;;;;;;;26.90;16.67;;;;;;;9.87;78.75;101462.63;5068752;28;20046;-22
2021/10/20 06:37:21;;;;;;;24.10;16.67;;;;;;;10.23;77.96;101461.94;5068741;28;20036;-22
2021/10/20 06:39:47;;;;;;;24.83;17.85;;;;;;;10.84;75.90;101470.63;5068730;28;20082;-21
2021/10/20 06:42:12;;;;;;;24.90;18.13;;;;;;;10.54;76.40;101461.84;5068475;28;20024;-22
2021/10/20 06:44:38;;;;;;;24.92;17.55;;;;;;;10.81;76.27;101481.69;5068725;28;20036;-22
2021/10/20 06:47:03;;;;;;;23.98;16.88;;;;;;;10.80;76.07;101476.53;5068980;28;20047;-21
2021/10/20 06:49:29;;;;;;;25.17;17.60;;;;;;;10.84;76.18;101475.97;5068664;28;20541;-22
2021/10/20 06:51:54;;;;;;;26.98;20.17;;;;;;;11.30;73.22;101474.03;5068809;28;20033;-21
2021/10/20 06:54:20;;;;;;;27.85;19.75;;;;;;;11.36;74.15;101473.25;5068492;28;20102;-21
2021/10/20 06:56:46;;;;;;;30.80;20.63;;;;;;;11.46;72.86;101474.63;5068276;28;20404;-23
2021/10/20 06:59:12;;;;;;;31.70;20.90;;;;;;;11.75;72.90;101488.03;5068731;28;20416;-21
2021/10/20 07:01:38;;;;;;;29.17;20.30;;;;;;;11.54;73.67;101476.31;5050547;28;20043;-22
2021/10/20 07:04:03;;;;;;;29.58;20.15;;;;;;;11.64;73.67;101484.84;5068416;28;20043;-21
2021/10/20 07:06:29;;;;;;;32.00;21.05;;;;;;;12.01;72.50;101491.00;5068552;28;20027;-22
2021/10/20 07:08:57;;;;;;;28.27;20.15;;;;;;;11.95;73.50;101488.25;5068150;28;20036;-22
2021/10/20 07:11:23;;;;;;;29.52;21.48;;;;;;;12.02;73.81;101489.13;5050813;28;20029;-21
2021/10/20 07:13:49;;;;;;;29.88;22.48;;;;;;;12.16;74.21;101479.38;5068461;28;20037;-21
2021/10/20 07:16:14;;;;;;;28.73;20.90;;;;;;;12.26;73.26;101479.88;5068366;28;20182;-21
2021/10/20 07:18:40;;;;;;;29.58;20.92;;;;;;;12.27;73.06;101457.44;5068532;28;20480;-21
2021/10/20 07:21:06;;;;;;;30.95;20.60;;;;;;;12.83;70.82;101481.44;5068214;28;20036;-22
2021/10/20 07:23:31;;;;;;;27.85;21.20;;;;;;;12.51;73.13;101490.09;5068667;28;20039;-22
2021/10/20 07:25:57;;;;;;;28.40;20.23;;;;;;;12.70;70.68;101480.53;5068248;28;20485;-21
2021/10/20 07:28:22;;;;;;;26.48;18.77;;;;;;;12.71;69.46;101472.31;5068519;28;20085;-23
2021/10/20 07:30:48;;;;;;;26.45;18.88;;;;;;;12.84;69.02;101491.09;5068015;28;20151;-21
2021/10/20 07:33:13;;;;;;;31.63;20.35;;;;;;;12.69;69.88;101469.00;5067965;28;20037;-22
2021/10/20 07:35:39;;;;;;;30.65;20.52;;;;;;;12.57;68.99;101474.06;5050291;28;20029;-22
2021/10/20 07:38:04;;;;;;;29.05;20.35;;;;;;;13.18;68.71;101483.22;5068254;28;20040;-22
2021/10/20 07:40:30;;;;;;;30.58;21.02;;;;;;;13.10;68.79;101497.59;5068015;28;20028;-22
2021/10/20 07:42:55;;;;;;;30.23;20.92;;;;;;;13.22;68.84;101490.63;5071325;28;20028;-22
2021/10/20 07:45:21;;;;;;;30.98;21.38;;;;;;;13.00;69.75;101486.44;5071659;28;20028;-22
2021/10/20 07:47:47;;;;;;;30.70;19.67;;;;;;;12.80;70.08;101462.25;5071631;28;20464;-22
2021/10/20 07:50:13;;;;;;;29.00;20.88;;;;;;;13.32;69.55;101482.25;5053738;28;20454;-22
2021/10/20 07:52:39;;;;;;;31.00;19.38;;;;;;;13.19;66.75;101458.88;5071767;28;20040;-21
2021/10/20 07:55:05;;;;;;;28.10;18.77;;;;;;;13.73;66.36;101486.66;5071215;28;20876;-22
2021/10/20 07:57:31;;;;;;;25.80;18.55;;;;;;;14.09;64.80;101489.94;5071237;28;20035;-21
2021/10/20 07:59:56;;;;;;;22.65;15.57;;;;;;;14.05;64.92;101489.53;5053434;28;20040;-22
2021/10/20 08:02:22;;;;;;;22.95;14.52;;;;;;;14.24;63.11;101490.53;5071444;28;20110;-21
2021/10/20 08:04:47;;;;;;;23.23;15.52;;;;;;;14.75;60.02;101479.13;5071215;28;20024;-22
2021/10/20 08:07:13;;;;;;;19.17;13.43;;;;;;;14.82;60.28;101461.13;5071387;28;20032;-23
2021/10/20 08:09:38;;;;;;;20.35;13.35;;;;;;;14.59;60.96;101471.53;5071322;28;20028;-21
2021/10/20 08:12:04;;;;;;;25.80;13.48;;;;;;;14.98;60.11;101472.44;5071229;28;20035;-22
2021/10/20 08:14:31;;;;;;;19.77;14.75;;;;;;;15.34;59.99;101481.72;5071188;28;20028;-22
2021/10/20 08:16:57;;;;;;;20.73;13.75;;;;;;;15.60;60.42;101481.56;5052828;28;20059;-21
2021/10/20 08:19:22;;;;;;;17.83;11.68;;;;;;;15.34;58.20;101468.28;5071576;28;20041;-21
2021/10/20 08:21:48;;;;;;;15.23;11.27;;;;;;;15.29;58.03;101473.50;5071034;28;20411;-21
2021/10/20 08:24:13;;;;;;;18.55;11.65;;;;;;;15.66;55.23;101483.38;5070723;28;20047;-21
2021/10/20 08:26:39;;;;;;;17.63;12.02;;;;;;;15.44;57.31;101484.78;5070931;28;20020;-19
2021/10/20 08:29:04;;;;;;;17.30;12.13;;;;;;;14.23;60.48;101480.84;5070893;28;20578;-19
2021/10/20 08:31:30;;;;;;;16.00;11.07;;;;;;;14.47;60.86;101472.13;5070578;28;20127;-19
2021/10/20 08:33:55;;;;;;;18.85;11.85;;;;;;;14.97;59.69;101462.69;5070633;28;20052;-19
2021/10/20 08:36:20;;;;;;;18.92;12.85;;;;;;;15.36;58.54;101466.22;5070625;28;20025;-19
2021/10/20 08:38:46;;;;;;;18.25;12.50;;;;;;;15.43;60.42;101464.31;5070532;28;20154;-19
2021/10/20 08:41:11;;;;;;;14.98;11.05;;;;;;;15.31;58.21;101471.44;5070595;28;20043;-20
2021/10/20 08:43:37;;;;;;;16.27;11.88;;;;;;;15.24;59.18;101458.84;5052836;28;20036;-21
2021/10/20 08:46:03;;;;;;;17.30;11.82;;;;;;;15.72;58.05;101468.28;5053328;28;20033;-19
2021/10/20 08:48:29;;;;;;;16.25;10.75;;;;;;;15.48;59.65;101461.78;5070819;28;20036;-19
2021/10/20 08:50:58;;;;;;;18.58;11.55;;;;;;;15.23;60.16;101462.56;5052547;28;20068;-19
2021/10/20 08:53:24;;;;;;;17.15;12.13;;;;;;;15.94;57.37;101466.03;5069847;28;20859;-19
2021/10/20 08:55:50;;;;;;;19.77;12.55;;;;;;;16.43;56.74;101466.19;5070286;28;20033;-20
2021/10/20 08:58:16;;;;;;;19.13;12.82;;;;;;;16.29;57.80;101460.13;5070302;28;20064;-19
2021/10/20 09:00:41;;;;;;;17.80;11.93;;;;;;;16.44;56.57;101455.19;5070329;28;20052;-19
2021/10/20 09:03:07;;;;;;;18.33;12.30;;;;;;;16.12;56.33;101467.94;5069961;28;20484;-19
2021/10/20 09:05:32;;;;;;;15.38;11.88;;;;;;;16.26;55.80;101464.09;5070478;28;20546;-20
2021/10/20 09:07:58;;;;;;;15.68;11.68;;;;;;;16.78;54.57;101425.19;5070118;28;20039;-20
2021/10/20 09:10:25;;;;;;;20.92;12.75;;;;;;;17.01;55.43;101449.56;5070003;28;20512;-19
2021/10/20 09:12:54;;;;;;;18.35;12.57;;;;;;;17.14;55.28;101448.56;5035611;28;20113;-19
2021/10/20 09:15:21;;;;;;;16.80;12.40;;;;;;;17.34;52.49;101450.16;5069893;28;20029;-20
2021/10/20 09:18:07;;;;;;;17.67;12.10;;;;;;;17.35;53.45;101438.31;5069995;28;20487;-19
2021/10/20 09:20:40;;;;;;;18.17;12.98;;;;;;;17.63;50.20;101438.50;5052084;28;20115;-20
2021/10/20 09:23:13;;;;;;;16.90;12.13;;;;;;;17.29;50.78;101423.88;5069480;28;20040;-19
2021/10/20 09:25:41;;;;;;;17.27;13.00;;;;;;;17.29;52.60;101445.47;5069663;28;20032;-20
2021/10/20 09:28:19;;;;;;;16.83;11.30;;;;;;;17.81;50.88;101444.84;5069843;28;20507;-19
2021/10/20 09:30:45;;;;;;;14.63;10.55;;;;;;;17.81;50.34;101437.56;5069652;28;20053;-19
2021/10/20 09:33:10;;;;;;;14.07;9.68;;;;;;;17.57;51.02;101436.72;5070018;28;20549;-19
2021/10/20 09:35:36;;;;;;;13.82;10.52;;;;;;;17.26;53.29;101430.56;5069452;28;20032;-19
2021/10/20 09:38:02;;;;;;;13.95;10.25;;;;;;;17.08;51.82;101422.53;5069517;28;20036;-20
2021/10/20 09:40:34;;;;;;;16.90;10.48;;;;;;;16.76;53.03;101417.31;5069395;28;20040;-19
2021/10/20 09:43:00;;;;;;;15.63;11.02;;;;;;;17.60;52.39;101432.75;5069284;28;20032;-19
2021/10/20 09:45:25;;;;;;;16.13;10.63;;;;;;;17.73;53.46;101421.72;5069307;28;20512;-19
2021/10/20 09:47:52;;;;;;;15.85;10.10;;;;;;;17.82;49.98;101416.81;5069522;28;20035;-19
2021/10/20 09:50:18;;;;;;;11.63;8.65;;;;;;;17.92;48.78;101410.84;5069275;28;20419;-19
2021/10/20 09:52:44;;;;;;;13.32;9.52;;;;;;;18.30;47.26;101407.66;5069025;28;20036;-19
2021/10/20 09:55:27;;;;;;;12.48;8.50;;;;;;;18.92;45.04;101392.69;5069407;28;20036;-19
2021/10/20 09:58:02;;;;;;;12.85;9.05;;;;;;;18.54;45.25;101413.00;5069035;28;20472;-19
2021/10/20 10:00:28;;;;;;;10.23;8.25;;;;;;;18.83;44.60;101384.97;5069120;28;20510;-20
2021/10/20 10:02:54;;;;;;;15.18;8.63;;;;;;;19.07;45.21;101398.38;5068966;28;20082;-19
2021/10/20 10:05:20;;;;;;;13.25;8.48;;;;;;;18.74;48.23;101399.09;5050976;28;20028;-20
2021/10/20 10:07:46;;;;;;;14.50;9.98;;;;;;;18.53;45.54;101392.44;5068939;28;20500;-19
2021/10/20 10:10:11;;;;;;;14.18;9.25;;;;;;;18.17;47.64;101389.03;5051065;28;20074;-19
2021/10/20 10:12:37;;;;;;;13.95;9.23;;;;;;;18.87;47.32;101383.41;5069124;28;20036;-19
2021/10/20 10:15:06;;;;;;;12.95;9.25;;;;;;;19.61;44.22;101373.56;5034156;28;20029;-19
2021/10/20 10:17:32;;;;;;;15.88;9.85;;;;;;;19.56;43.26;101387.03;5050989;28;20047;-20
2021/10/20 10:20:06;;;;;;;12.65;9.20;;;;;;;19.56;44.56;101371.63;5034376;28;20029;-19
2021/10/20 10:22:32;;;;;;;12.32;7.88;;;;;;;18.71;46.43;101369.84;5068836;28;20025;-19
2021/10/20 10:25:03;;;;;;;11.30;8.35;;;;;;;18.77;43.08;101355.34;5068847;28;20035;-20
2021/10/20 10:27:29;;;;;;;13.18;8.95;;;;;;;18.45;47.14;101351.25;5069020;28;20039;-19
2021/10/20 10:30:04;;;;;;;10.57;8.13;;;;;;;18.80;45.59;101380.06;5068617;28;20024;-20
2021/10/20 10:32:32;;;;;;;11.05;8.55;;;;;;;19.07;44.94;101366.75;5068856;28;20042;-19
2021/10/20 10:35:06;;;;;;;14.07;8.68;;;;;;;18.84;46.23;101373.09;5068799;28;20104;-19
2021/10/20 10:37:32;;;;;;;12.00;8.43;;;;;;;19.32;43.56;101356.63;5051575;28;20036;-19
2021/10/20 10:40:16;;;;;;;11.18;8.40;;;;;;;19.45;43.93;101367.09;5068620;28;20024;-20
2021/10/20 10:42:44;;;;;;;11.48;8.48;;;;;;;20.00;42.61;101347.38;5068684;28;20051;-19
2021/10/20 10:45:12;;;;;;;14.05;9.32;;;;;;;20.02;43.84;101337.13;5068744;28;20027;-19
2021/10/20 10:47:57;;;;;;;13.82;8.85;;;;;;;20.41;41.71;101349.75;5068613;28;20032;-19
2021/10/20 10:50:41;;;;;;;12.02;8.27;;;;;;;19.54;43.77;101360.22;5068933;28;20496;-19
2021/10/20 10:53:06;;;;;;;13.45;9.00;;;;;;;19.58;42.92;101347.84;5052518;28;20512;-19
2021/10/20 10:55:32;;;;;;;11.57;8.82;;;;;;;19.43;43.83;101344.88;5068726;28;20849;-20
2021/10/20 10:58:16;;;;;;;14.82;9.65;;;;;;;19.45;42.47;101348.16;5068632;28;20465;-19
2021/10/20 11:00:44;;;;;;;12.90;9.18;;;;;;;20.24;42.11;101334.41;5050632;28;20450;-19
2021/10/20 11:03:09;;;;;;;15.18;9.38;;;;;;;20.92;40.21;101338.66;5068334;28;20484;-19
2021/10/20 11:05:34;;;;;;;12.23;9.40;;;;;;;21.11;40.59;101331.81;5068504;28;20032;-20
2021/10/20 11:08:00;;;;;;;15.30;9.73;;;;;;;21.35;40.87;101336.84;5050454;28;20025;-20
2021/10/20 11:10:25;;;;;;;13.10;9.52;;;;;;;20.98;39.98;101311.34;5068380;28;20024;-19